DIAP/ABJ METAR and TAF weather

Enter ICAO airport designator
Station Type Date Time Source
DIAP METAR 2022/05/24 13:00 UTC NOAA

DIAP 241300Z 25009KT 9999 SCT012 BKN040 26/25 Q1014 RETS NOSIG


Station Type Date Time Source
DIAP Decoded METAR 2022/05/24 13:00 UTC NOAA

Abidjan, Cote d'Ivoire (DIAP) 05-15N 003-56W 8M
May 24, 2022 - 09:00 AM EDT / 2022.05.24 1300 UTC
Wind: from the WSW (250 degrees) at 10 MPH (9 KT):0
Visibility: greater than 7 mile(s):0
Sky conditions: mostly cloudy
Temperature: 78 F (26 C)
Dew Point: 77 F (25 C)
Relative Humidity: 94%
Pressure (altimeter): 29.94 in. Hg (1014 hPa)
ob: DIAP 241300Z 25009KT 9999 SCT012 BKN040 26/25 Q1014 RETS NOSIG
cycle: 13

Station Type Date Time Source
DIAP TAF 2022/05/24 12:29 UTC NOAA

TAF COR DIAP 241109Z 2412/2518 22010KT 9999 SCT012 BKN040 PROB40
TEMPO 2412/2418 4000 TSRA BKN010 FEW020CB BKN030 PROB40
TEMPO 2418/2423 4000 TSRA BKN010 FEW020CB BKN030 PROB30
TEMPO 2423/2504 4000 RA BKN010 BKN030 PROB40
TEMPO 2504/2510 4000 RA BKN010 BKN030

Example: see airport list